Time;durP1;ratioP1;P1;durP2;ratioP2;P2;SDS_P1;SDS_P2;PMS_P1;PMS_P2;Temp;Humidity;BMP_temperature;BMP_pressure;BME280_temperature;BME280_humidity;BME280_pressure;Samples;Min_cycle;Max_cycle;Signal;HPM_P1;HPM_P2
2021/11/14 00:00:27;;;;;;;3.13;1.63;;;;;;;;;;5031205;28;20029;-83
2021/11/14 00:02:54;;;;;;;1.92;1.38;;;;;;;;;;5029263;28;20133;-84
2021/11/14 00:05:20;;;;;;;4.60;1.52;;;;;;;;;;5031271;28;20112;-85
2021/11/14 00:07:47;;;;;;;2.92;1.60;;;;;;;;;;5030910;28;20108;-86
2021/11/14 00:10:13;;;;;;;2.58;1.60;;;;;;;;;;5030564;28;20026;-86
2021/11/14 00:12:39;;;;;;;2.47;1.75;;;;;;;;;;5030713;28;20022;-87
2021/11/14 00:15:06;;;;;;;3.03;1.58;;;;;;;;;;5030467;28;20026;-87
2021/11/14 00:17:33;;;;;;;2.85;1.60;;;;;;;;;;5030586;28;20022;-85
2021/11/14 00:19:59;;;;;;;3.65;1.60;;;;;;;;;;5030499;28;20104;-87
2021/11/14 00:22:25;;;;;;;2.47;1.50;;;;;;;;;;5030684;28;20032;-86
2021/11/14 00:24:51;;;;;;;2.38;1.35;;;;;;;;;;5030852;28;20048;-86
2021/11/14 00:27:17;;;;;;;1.83;1.05;;;;;;;;;;5030199;28;20400;-86
2021/11/14 00:29:43;;;;;;;2.70;1.30;;;;;;;;;;5030667;28;20037;-86
2021/11/14 00:32:10;;;;;;;2.78;1.48;;;;;;;;;;5030363;28;20024;-87
2021/11/14 00:34:36;;;;;;;2.55;1.17;;;;;;;;;;5030554;28;20034;-87
2021/11/14 00:37:02;;;;;;;2.03;1.15;;;;;;;;;;5030265;28;20051;-86
2021/11/14 00:39:29;;;;;;;2.65;1.35;;;;;;;;;;5046638;28;20093;-86
2021/11/14 00:41:55;;;;;;;2.65;1.13;;;;;;;;;;5049967;28;20370;-86
2021/11/14 00:44:21;;;;;;;2.55;1.50;;;;;;;;;;5049495;28;20066;-86
2021/11/14 00:46:48;;;;;;;2.22;1.30;;;;;;;;;;5048669;28;20033;-84
2021/11/14 00:49:14;;;;;;;2.97;1.30;;;;;;;;;;5049989;28;20032;-86
2021/11/14 00:51:41;;;;;;;5.10;1.33;;;;;;;;;;5050261;28;20073;-85
2021/11/14 00:54:07;;;;;;;2.65;1.30;;;;;;;;;;5049760;28;20029;-87
2021/11/14 00:56:33;;;;;;;3.33;1.52;;;;;;;;;;5050151;28;20017;-85
2021/11/14 00:58:59;;;;;;;1.77;1.10;;;;;;;;;;5049530;28;20055;-83
2021/11/14 01:01:25;;;;;;;3.17;1.23;;;;;;;;;;5049925;28;20069;-84
2021/11/14 01:03:52;;;;;;;2.47;1.27;;;;;;;;;;5048952;28;20029;-84
2021/11/14 01:06:18;;;;;;;2.25;1.27;;;;;;;;;;5049850;28;20013;-84
2021/11/14 01:08:44;;;;;;;2.33;1.40;;;;;;;;;;5049611;28;20033;-84
2021/11/14 01:11:11;;;;;;;2.85;1.30;;;;;;;;;;5049402;28;20392;-82
2021/11/14 01:13:37;;;;;;;2.78;1.40;;;;;;;;;;5049545;28;20028;-81
2021/11/14 01:16:04;;;;;;;2.70;1.70;;;;;;;;;;5049394;28;20021;-82
2021/11/14 01:18:32;;;;;;;2.60;1.30;;;;;;;;;;5049669;28;20399;-81
2021/11/14 01:20:59;;;;;;;1.58;1.30;;;;;;;;;;5049199;28;20054;-80
2021/11/14 01:23:25;;;;;;;1.92;1.35;;;;;;;;;;5049542;28;20032;-79
2021/11/14 01:25:52;;;;;;;4.32;1.33;;;;;;;;;;5049756;28;20100;-79
2021/11/14 01:28:19;;;;;;;3.00;1.20;;;;;;;;;;5049431;28;20025;-80
2021/11/14 01:30:47;;;;;;;2.70;1.20;;;;;;;;;;5049325;28;20029;-82
2021/11/14 01:33:14;;;;;;;2.40;1.30;;;;;;;;;;5048703;28;20493;-81
2021/11/14 01:35:41;;;;;;;2.45;1.33;;;;;;;;;;5047918;28;20024;-81
2021/11/14 01:38:08;;;;;;;3.92;1.33;;;;;;;;;;5042086;28;20029;-80
2021/11/14 01:40:36;;;;;;;2.63;1.17;;;;;;;;;;5028424;28;20405;-81
2021/11/14 01:43:03;;;;;;;1.80;0.98;;;;;;;;;;5027571;28;20026;-81
2021/11/14 01:45:30;;;;;;;1.92;1.23;;;;;;;;;;5029299;28;20053;-81
2021/11/14 01:47:56;;;;;;;1.98;1.00;;;;;;;;;;5029387;28;20520;-81
2021/11/14 01:50:23;;;;;;;2.15;1.00;;;;;;;;;;5028416;28;20021;-81
2021/11/14 01:52:50;;;;;;;2.35;1.05;;;;;;;;;;5028120;28;20450;-81
2021/11/14 01:55:18;;;;;;;1.67;0.98;;;;;;;;;;5028677;28;20570;-81
2021/11/14 01:57:44;;;;;;;1.67;1.00;;;;;;;;;;5028915;28;20029;-81
2021/11/14 02:00:12;;;;;;;2.28;1.10;;;;;;;;;;5029032;28;20049;-80
2021/11/14 02:02:38;;;;;;;2.35;1.35;;;;;;;;;;5029135;28;20026;-81
2021/11/14 02:05:05;;;;;;;2.53;0.95;;;;;;;;;;5028854;28;20036;-81
2021/11/14 02:07:32;;;;;;;1.85;0.93;;;;;;;;;;5029058;28;20026;-81
2021/11/14 02:09:58;;;;;;;2.25;1.10;;;;;;;;;;5028862;28;20054;-81
2021/11/14 02:12:24;;;;;;;2.97;1.10;;;;;;;;;;5029126;28;20121;-81
2021/11/14 02:14:50;;;;;;;3.60;1.00;;;;;;;;;;5029354;28;20131;-82
2021/11/14 02:17:16;;;;;;;2.65;1.35;;;;;;;;;;5028683;28;20033;-81
2021/11/14 02:19:47;;;;;;;1.75;1.00;;;;;;;;;;5028781;28;20386;-81
2021/11/14 02:22:13;;;;;;;2.50;1.25;;;;;;;;;;5028796;28;20057;-81
2021/11/14 02:24:39;;;;;;;2.40;1.10;;;;;;;;;;5028899;28;20145;-81
2021/11/14 02:27:05;;;;;;;1.23;0.82;;;;;;;;;;5028648;28;20380;-81
2021/11/14 02:29:31;;;;;;;2.15;0.90;;;;;;;;;;5028951;28;20057;-81
2021/11/14 02:31:57;;;;;;;2.67;1.33;;;;;;;;;;5028434;28;20028;-81
2021/11/14 02:34:23;;;;;;;2.55;1.00;;;;;;;;;;5029061;28;20448;-81
2021/11/14 02:36:49;;;;;;;1.70;0.82;;;;;;;;;;5028934;28;20025;-81
2021/11/14 02:39:16;;;;;;;2.42;1.17;;;;;;;;;;5044321;28;20112;-81
2021/11/14 02:41:42;;;;;;;1.58;0.82;;;;;;;;;;5048629;28;20025;-81
2021/11/14 02:44:08;;;;;;;3.05;1.30;;;;;;;;;;5048116;28;20120;-81
2021/11/14 02:46:34;;;;;;;2.40;1.10;;;;;;;;;;5048090;28;20053;-81
2021/11/14 02:49:00;;;;;;;1.98;0.90;;;;;;;;;;5047863;28;20021;-81
2021/11/14 02:51:28;;;;;;;1.63;1.00;;;;;;;;;;5048331;28;20055;-81
2021/11/14 02:53:54;;;;;;;1.50;0.93;;;;;;;;;;5047773;28;20485;-81
2021/11/14 02:56:20;;;;;;;2.20;1.10;;;;;;;;;;5048524;28;20556;-80
2021/11/14 02:58:46;;;;;;;3.50;1.05;;;;;;;;;;5046875;28;20413;-81
2021/11/14 03:01:16;;;;;;;1.70;1.02;;;;;;;;;;5048155;28;20029;-81
2021/11/14 03:03:44;;;;;;;2.40;1.00;;;;;;;;;;5047997;28;20021;-80
2021/11/14 03:06:10;;;;;;;1.83;0.90;;;;;;;;;;5049305;28;20077;-81
2021/11/14 03:08:36;;;;;;;2.28;1.20;;;;;;;;;;5054845;28;20025;-81
2021/11/14 03:11:03;;;;;;;1.80;0.93;;;;;;;;;;5054538;28;20025;-81
2021/11/14 03:13:29;;;;;;;2.13;0.90;;;;;;;;;;5054793;28;20142;-81
2021/11/14 03:15:57;;;;;;;2.13;1.15;;;;;;;;;;5054539;28;20028;-81
2021/11/14 03:18:23;;;;;;;2.05;1.10;;;;;;;;;;5054516;28;20511;-81
2021/11/14 03:20:50;;;;;;;1.95;0.98;;;;;;;;;;5054906;28;20422;-82
2021/11/14 03:23:16;;;;;;;2.47;1.00;;;;;;;;;;5054433;28;20028;-81
2021/11/14 03:25:43;;;;;;;1.67;0.98;;;;;;;;;;5053296;28;20025;-81
2021/11/14 03:28:09;;;;;;;1.45;0.80;;;;;;;;;;5053422;28;20467;-80
2021/11/14 03:30:36;;;;;;;3.28;1.27;;;;;;;;;;5054399;28;20025;-80
2021/11/14 03:33:03;;;;;;;2.10;1.13;;;;;;;;;;5054143;28;20094;-81
2021/11/14 03:35:37;;;;;;;3.92;1.23;;;;;;;;;;5054202;28;20053;-81
2021/11/14 03:38:03;;;;;;;1.52;0.90;;;;;;;;;;5047741;27;20027;-81
2021/11/14 03:40:29;;;;;;;2.67;1.15;;;;;;;;;;5034481;28;20036;-81
2021/11/14 03:42:55;;;;;;;4.18;1.48;;;;;;;;;;5034743;28;20382;-81
2021/11/14 03:45:22;;;;;;;2.28;0.82;;;;;;;;;;5034515;28;20044;-81
2021/11/14 03:47:48;;;;;;;2.85;1.00;;;;;;;;;;5034350;28;20025;-81
2021/11/14 03:50:14;;;;;;;2.97;1.20;;;;;;;;;;5034176;28;20033;-82
2021/11/14 03:52:43;;;;;;;1.58;0.98;;;;;;;;;;5034330;28;20026;-82
2021/11/14 03:55:10;;;;;;;3.72;1.05;;;;;;;;;;5034086;28;20405;-80
2021/11/14 03:57:36;;;;;;;3.55;1.08;;;;;;;;;;5034212;28;20034;-80
2021/11/14 04:00:04;;;;;;;2.63;1.20;;;;;;;;;;5033821;28;20399;-80
2021/11/14 04:02:30;;;;;;;2.17;1.30;;;;;;;;;;5033741;28;20063;-80
2021/11/14 04:04:56;;;;;;;2.58;1.15;;;;;;;;;;5032647;28;20176;-81
2021/11/14 04:07:22;;;;;;;1.83;1.02;;;;;;;;;;5034469;28;20482;-82
2021/11/14 04:09:48;;;;;;;1.90;1.20;;;;;;;;;;5034093;28;20078;-82
2021/11/14 04:12:14;;;;;;;2.38;1.08;;;;;;;;;;5034015;28;20029;-82
2021/11/14 04:14:40;;;;;;;2.17;0.95;;;;;;;;;;5032887;27;20031;-82
2021/11/14 04:17:06;;;;;;;4.38;1.13;;;;;;;;;;5033698;27;20109;-81
2021/11/14 04:19:32;;;;;;;1.90;1.00;;;;;;;;;;5030851;28;20163;-81
2021/11/14 04:21:58;;;;;;;2.28;1.00;;;;;;;;;;5030506;28;20096;-81
2021/11/14 04:24:24;;;;;;;1.88;1.05;;;;;;;;;;5030557;28;20091;-81
2021/11/14 04:26:50;;;;;;;3.00;1.20;;;;;;;;;;5050648;28;20457;-81
2021/11/14 04:29:16;;;;;;;2.75;1.10;;;;;;;;;;5050224;28;20025;-80
2021/11/14 04:31:42;;;;;;;2.17;1.30;;;;;;;;;;5050119;28;20392;-80
2021/11/14 04:34:08;;;;;;;3.13;1.15;;;;;;;;;;5050299;28;20029;-81
2021/11/14 04:36:34;;;;;;;3.30;1.38;;;;;;;;;;5050190;28;20093;-81
2021/11/14 04:39:00;;;;;;;2.72;1.50;;;;;;;;;;5050105;28;20041;-81
2021/11/14 04:41:26;;;;;;;2.00;1.20;;;;;;;;;;5049875;28;20048;-81
2021/11/14 04:43:53;;;;;;;1.52;1.23;;;;;;;;;;5050363;28;20021;-81
2021/11/14 04:46:19;;;;;;;3.08;1.25;;;;;;;;;;5050312;28;20037;-81
2021/11/14 04:48:45;;;;;;;2.70;1.20;;;;;;;;;;5050145;28;20477;-81
2021/11/14 04:51:11;;;;;;;1.80;1.30;;;;;;;;;;5050060;28;20025;-81
2021/11/14 04:53:37;;;;;;;2.72;1.23;;;;;;;;;;5049679;28;20124;-81
2021/11/14 04:56:03;;;;;;;2.80;1.30;;;;;;;;;;5049859;28;20021;-81
2021/11/14 04:58:29;;;;;;;1.92;1.27;;;;;;;;;;5049337;28;20373;-79
2021/11/14 05:00:56;;;;;;;2.42;1.38;;;;;;;;;;5049871;28;20089;-80
2021/11/14 05:03:22;;;;;;;1.80;1.25;;;;;;;;;;5049982;28;20017;-80
2021/11/14 05:05:48;;;;;;;3.00;1.30;;;;;;;;;;5049833;28;20036;-80
2021/11/14 05:08:14;;;;;;;2.58;1.52;;;;;;;;;;5049965;28;20029;-80
2021/11/14 05:10:43;;;;;;;2.53;1.23;;;;;;;;;;5048228;28;20374;-81
2021/11/14 05:13:09;;;;;;;3.15;1.70;;;;;;;;;;5049585;28;20033;-80
2021/11/14 05:15:35;;;;;;;2.13;1.20;;;;;;;;;;5049219;28;20021;-81
2021/11/14 05:18:02;;;;;;;3.40;1.50;;;;;;;;;;5049526;28;20025;-80
2021/11/14 05:20:28;;;;;;;2.47;1.58;;;;;;;;;;5049552;28;20108;-80
2021/11/14 05:22:54;;;;;;;2.40;1.38;;;;;;;;;;5049973;28;20040;-81
2021/11/14 05:25:21;;;;;;;2.05;1.40;;;;;;;;;;5049371;28;20128;-80
2021/11/14 05:27:47;;;;;;;2.97;1.25;;;;;;;;;;5049581;28;20025;-79
2021/11/14 05:30:13;;;;;;;3.17;1.33;;;;;;;;;;5049157;28;20397;-81
2021/11/14 05:32:40;;;;;;;2.10;1.60;;;;;;;;;;5049359;28;20036;-80
2021/11/14 05:35:06;;;;;;;3.05;1.30;;;;;;;;;;5049462;28;20043;-81
2021/11/14 05:37:32;;;;;;;1.80;1.30;;;;;;;;;;5049152;28;20040;-82
2021/11/14 05:39:58;;;;;;;1.80;1.20;;;;;;;;;;5049113;28;20036;-81
2021/11/14 05:42:24;;;;;;;3.97;1.60;;;;;;;;;;5049492;28;20017;-81
2021/11/14 05:44:50;;;;;;;2.03;1.20;;;;;;;;;;5049669;28;20056;-81
2021/11/14 05:47:16;;;;;;;2.10;1.15;;;;;;;;;;5047784;28;20075;-81
2021/11/14 05:49:42;;;;;;;2.20;1.40;;;;;;;;;;5048910;28;20073;-81
2021/11/14 05:52:08;;;;;;;2.22;1.30;;;;;;;;;;5049377;28;20077;-81
2021/11/14 05:54:35;;;;;;;3.92;1.30;;;;;;;;;;5047815;28;20052;-79
2021/11/14 05:57:01;;;;;;;2.63;1.20;;;;;;;;;;5047526;28;20025;-80
2021/11/14 06:02:57;;;;;;;2.10;1.17;;;;;;;;;;5048854;28;20036;-80
2021/11/14 06:05:19;;;;;;;2.13;1.35;;;;;;;;;;5043027;28;20033;-80
2021/11/14 06:07:45;;;;;;;1.85;1.20;;;;;;;;;;5047568;28;20025;-80
2021/11/14 06:10:12;;;;;;;1.67;0.98;;;;;;;;;;5048910;28;20059;-80
2021/11/14 06:12:38;;;;;;;4.40;1.40;;;;;;;;;;5048718;28;20530;-80
2021/11/14 06:15:09;;;;;;;1.88;1.20;;;;;;;;;;5048854;28;20025;-79
2021/11/14 06:17:35;;;;;;;1.75;1.10;;;;;;;;;;5048487;28;20028;-78
2021/11/14 06:20:01;;;;;;;2.50;1.30;;;;;;;;;;5048403;28;20037;-80
2021/11/14 06:22:27;;;;;;;1.85;1.30;;;;;;;;;;5048525;28;20033;-80
2021/11/14 06:24:53;;;;;;;1.73;1.10;;;;;;;;;;5049002;28;20480;-80
2021/11/14 06:27:19;;;;;;;2.03;1.35;;;;;;;;;;5046984;28;20070;-80
2021/11/14 06:29:45;;;;;;;3.28;1.60;;;;;;;;;;5048556;28;20026;-81
2021/11/14 06:32:11;;;;;;;1.73;1.00;;;;;;;;;;5048416;28;20033;-81
2021/11/14 06:34:37;;;;;;;2.20;1.38;;;;;;;;;;5044325;28;20018;-80
2021/11/14 06:37:04;;;;;;;2.80;1.50;;;;;;;;;;5028910;28;20108;-80
2021/11/14 06:39:30;;;;;;;2.80;1.20;;;;;;;;;;5046139;28;20074;-80
2021/11/14 06:41:56;;;;;;;2.70;1.50;;;;;;;;;;5047543;28;20488;-79
2021/11/14 06:44:22;;;;;;;2.50;1.48;;;;;;;;;;5047837;28;20029;-80
2021/11/14 06:46:48;;;;;;;2.60;1.33;;;;;;;;;;5047212;28;20048;-81
2021/11/14 06:49:14;;;;;;;2.30;1.35;;;;;;;;;;5048078;28;20485;-80
2021/11/14 06:51:40;;;;;;;2.55;1.50;;;;;;;;;;5042552;28;20036;-81
2021/11/14 06:54:06;;;;;;;2.83;1.33;;;;;;;;;;5028389;28;20407;-83
2021/11/14 06:56:32;;;;;;;2.20;1.45;;;;;;;;;;5042177;28;20070;-81
2021/11/14 06:58:58;;;;;;;3.17;1.58;;;;;;;;;;5047059;28;20686;-78
2021/11/14 07:01:24;;;;;;;2.67;1.40;;;;;;;;;;5036456;28;20029;-81
2021/11/14 07:03:50;;;;;;;1.90;1.30;;;;;;;;;;5028343;28;20437;-80
2021/11/14 07:06:16;;;;;;;3.63;1.60;;;;;;;;;;5028137;28;20082;-81
2021/11/14 07:08:42;;;;;;;3.00;1.60;;;;;;;;;;5028144;28;20032;-79
2021/11/14 07:11:08;;;;;;;3.55;1.58;;;;;;;;;;5028192;28;20022;-80
2021/11/14 07:13:34;;;;;;;3.60;1.70;;;;;;;;;;5027985;28;20083;-81
2021/11/14 07:16:00;;;;;;;2.25;1.10;;;;;;;;;;5028144;28;20448;-81
2021/11/14 07:18:26;;;;;;;2.45;1.63;;;;;;;;;;5027842;28;20446;-76
2021/11/14 07:20:52;;;;;;;2.08;1.42;;;;;;;;;;5028257;28;20492;-81
2021/11/14 07:23:18;;;;;;;2.22;1.35;;;;;;;;;;5031352;28;20273;-81
2021/11/14 07:25:44;;;;;;;3.60;2.08;;;;;;;;;;5047819;28;20025;-79
2021/11/14 07:28:11;;;;;;;3.10;1.90;;;;;;;;;;5047697;28;20025;-80
2021/11/14 07:30:37;;;;;;;2.95;1.88;;;;;;;;;;5047624;28;20029;-78
2021/11/14 07:33:04;;;;;;;5.43;1.60;;;;;;;;;;5047784;28;20021;-79
2021/11/14 07:35:30;;;;;;;4.53;1.70;;;;;;;;;;5047413;28;20032;-76
2021/11/14 07:37:56;;;;;;;4.53;1.48;;;;;;;;;;5042525;28;20022;-78
2021/11/14 07:40:23;;;;;;;2.80;1.77;;;;;;;;;;5027775;28;20040;-76
2021/11/14 07:42:53;;;;;;;2.63;1.58;;;;;;;;;;5027920;28;20022;-79
2021/11/14 07:45:21;;;;;;;3.30;1.70;;;;;;;;;;5027413;28;20061;-79
2021/11/14 07:47:47;;;;;;;3.35;1.63;;;;;;;;;;5027796;28;20021;-80
2021/11/14 07:50:15;;;;;;;2.92;1.45;;;;;;;;;;5030420;28;20443;-78
2021/11/14 07:52:41;;;;;;;2.58;1.40;;;;;;;;;;5032032;28;20024;-82
2021/11/14 07:55:08;;;;;;;3.55;1.52;;;;;;;;;;5031039;28;20443;-81
2021/11/14 07:57:34;;;;;;;2.97;1.38;;;;;;;;;;5031970;28;20063;-82
2021/11/14 08:00:01;;;;;;;3.03;1.63;;;;;;;;;;5031095;28;20478;-77
2021/11/14 08:02:27;;;;;;;3.30;1.50;;;;;;;;;;5031221;28;20026;-80
2021/11/14 08:04:53;;;;;;;3.50;1.50;;;;;;;;;;5031023;28;20059;-80
2021/11/14 08:07:19;;;;;;;2.25;1.38;;;;;;;;;;5030939;28;20389;-80
2021/11/14 08:09:45;;;;;;;2.55;1.30;;;;;;;;;;5030868;28;20090;-79
2021/11/14 08:12:11;;;;;;;4.43;1.63;;;;;;;;;;5031015;28;20381;-80
2021/11/14 08:14:37;;;;;;;1.85;1.30;;;;;;;;;;5030534;28;20026;-81
2021/11/14 08:17:03;;;;;;;2.95;1.40;;;;;;;;;;5030865;28;20101;-81
2021/11/14 08:19:29;;;;;;;1.75;1.25;;;;;;;;;;5030758;28;20033;-81
2021/11/14 08:21:55;;;;;;;2.42;1.33;;;;;;;;;;5030791;28;20028;-81
2021/11/14 08:24:21;;;;;;;2.95;1.30;;;;;;;;;;5030491;28;20898;-79
2021/11/14 08:26:47;;;;;;;2.80;1.50;;;;;;;;;;5030803;28;20082;-79
2021/11/14 08:29:14;;;;;;;2.88;1.13;;;;;;;;;;5039514;28;20397;-78
2021/11/14 08:31:40;;;;;;;3.95;1.58;;;;;;;;;;5031770;28;20050;-79
2021/11/14 08:34:06;;;;;;;2.85;1.40;;;;;;;;;;5030453;28;20040;-78
2021/11/14 08:36:32;;;;;;;3.22;1.95;;;;;;;;;;5030074;28;20030;-80
2021/11/14 08:38:58;;;;;;;2.38;1.45;;;;;;;;;;5044223;28;20029;-83
2021/11/14 08:41:26;;;;;;;4.63;1.70;;;;;;;;;;5050056;28;20037;-80
2021/11/14 08:43:52;;;;;;;2.63;1.45;;;;;;;;;;5050211;28;20036;-80
2021/11/14 08:46:19;;;;;;;4.40;1.60;;;;;;;;;;5049988;28;20075;-79
2021/11/14 08:48:45;;;;;;;5.30;1.80;;;;;;;;;;5050203;28;20017;-79
2021/11/14 08:51:11;;;;;;;3.55;1.88;;;;;;;;;;5050187;28;20081;-80
2021/11/14 08:53:37;;;;;;;3.80;2.22;;;;;;;;;;5049724;28;20021;-79
2021/11/14 08:56:03;;;;;;;8.52;3.45;;;;;;;;;;5049661;28;20066;-81
2021/11/14 08:58:30;;;;;;;4.57;2.85;;;;;;;;;;5048198;28;20048;-82
2021/11/14 09:00:56;;;;;;;3.80;2.75;;;;;;;;;;5049605;28;20493;-84
2021/11/14 09:03:22;;;;;;;4.35;2.92;;;;;;;;;;5049470;28;20021;-85
2021/11/14 09:05:48;;;;;;;6.80;3.42;;;18.50;76.10;;;;;;5048276;28;20029;-85
2021/11/14 09:08:14;;;;;;;5.07;2.88;;;18.70;76.90;;;;;;5049724;28;20032;-84
2021/11/14 09:10:41;;;;;;;4.90;2.75;;;18.80;76.60;;;;;;5049408;28;20051;-85
2021/11/14 09:13:08;;;;;;;5.45;3.00;;;18.80;76.30;;;;;;5041024;28;20040;-77
2021/11/14 09:15:34;;;;;;;5.75;3.30;;;18.90;76.20;;;;;;5040900;28;20390;-83
2021/11/14 09:18:00;;;;;;;6.57;2.97;;;19.00;76.20;;;;;;5037975;28;20037;-83
2021/11/14 09:20:27;;;;;;;7.05;3.20;;;19.00;75.90;;;;;;5029435;28;20045;-77
2021/11/14 09:22:53;;;;;;;5.38;3.17;;;19.10;75.70;;;;;;5029862;28;20097;-85
2021/11/14 09:25:20;;;;;;;6.85;2.88;;;19.20;75.70;;;;;;5031168;28;20022;-79
2021/11/14 09:27:47;;;;;;;7.72;3.03;;;19.20;75.40;;;;;;5049563;28;20025;-82
2021/11/14 09:30:13;;;;;;;5.10;2.80;;;19.30;75.20;;;;;;5049490;28;20519;-85
2021/11/14 09:32:39;;;;;;;5.38;3.22;;;19.40;75.30;;;;;;5029952;28;20029;-81
2021/11/14 09:35:05;;;;;;;6.30;3.45;;;19.40;75.10;;;;;;5038346;28;20038;-82
2021/11/14 09:37:31;;;;;;;6.75;3.25;;;19.50;74.80;;;;;;5039281;28;20032;-82
2021/11/14 09:39:57;;;;;;;6.75;3.53;;;19.50;74.60;;;;;;5036684;28;20033;-83
2021/11/14 09:42:28;;;;;;;5.05;3.33;;;19.60;74.50;;;;;;5038372;28;20395;-82
2021/11/14 09:44:55;;;;;;;6.47;3.08;;;19.60;74.30;;;;;;5039818;28;20048;-83
2021/11/14 09:47:20;;;;;;;5.13;3.35;;;19.70;74.10;;;;;;5033233;28;20037;-88
2021/11/14 09:49:46;;;;;;;5.53;3.05;;;19.80;74.10;;;;;;5029145;28;20022;-85
2021/11/14 09:52:12;;;;;;;6.35;3.30;;;19.80;74.00;;;;;;5029167;28;20029;-87
2021/11/14 09:54:39;;;;;;;5.45;3.53;;;19.90;73.90;;;;;;5028717;28;20017;-84
2021/11/14 09:57:05;;;;;;;5.43;4.10;;;19.90;73.60;;;;;;5033462;28;20545;-80
2021/11/14 09:59:31;;;;;;;48.97;4.07;;;19.90;73.50;;;;;;5047192;28;20033;-84
2021/11/14 10:01:59;;;;;;;15.32;3.58;;;20.00;73.40;;;;;;5044337;28;20108;-85
2021/11/14 10:04:25;;;;;;;6.45;3.20;;;20.00;73.40;;;;;;5028729;28;20025;-84
2021/11/14 10:07:11;;;;;;;10.38;3.42;;;20.10;73.20;;;;;;5028969;28;20025;-84
2021/11/14 10:09:44;;;;;;;8.75;3.53;;;20.10;72.90;;;;;;5028688;28;20033;-84
2021/11/14 10:12:12;;;;;;;7.00;3.50;;;20.20;73.00;;;;;;5031832;28;20047;-83
2021/11/14 10:14:39;;;;;;;6.90;3.22;;;20.20;72.70;;;;;;5048614;28;20025;-84
2021/11/14 10:17:19;;;;;;;7.68;4.03;;;20.30;72.50;;;;;;5048364;28;20138;-86
2021/11/14 10:19:56;;;;;;;6.72;4.28;;;20.40;72.30;;;;;;5048388;28;20037;-85
2021/11/14 10:22:22;;;;;;;6.53;4.60;;;20.40;71.90;;;;;;5048298;28;20029;-85
2021/11/14 10:24:48;;;;;;;9.32;4.00;;;20.50;71.80;;;;;;5029724;28;20025;-85
2021/11/14 10:27:15;;;;;;;5.97;4.13;;;20.50;71.50;;;;;;5028550;28;20028;-87
2021/11/14 10:29:47;;;;;;;7.43;5.35;;;20.50;71.40;;;;;;5028567;28;20059;-86
2021/11/14 10:32:15;;;;;;;11.00;4.72;;;20.60;71.10;;;;;;5028759;28;20033;-86
2021/11/14 10:34:49;;;;;;;6.30;4.35;;;20.60;71.00;;;;;;5034748;28;20021;-86
2021/11/14 10:37:19;;;;;;;11.00;4.88;;;20.60;71.00;;;;;;5048645;28;20029;-85
2021/11/14 10:39:49;;;;;;;8.70;5.05;;;20.70;70.80;;;;;;5028400;28;20059;-82
2021/11/14 10:42:15;;;;;;;11.57;5.65;;;20.70;70.40;;;;;;5028706;28;20022;-84
2021/11/14 10:44:46;;;;;;;9.77;5.45;;;20.70;70.30;;;;;;5042913;28;20074;-83
2021/11/14 10:47:13;;;;;;;7.93;5.72;;;20.80;69.90;;;;;;5048134;28;20085;-83
2021/11/14 10:49:50;;;;;;;10.85;6.05;;;20.80;69.70;;;;;;5047968;28;20327;-83
2021/11/14 10:52:17;;;;;;;8.48;5.85;;;20.80;70.00;;;;;;5048229;28;20028;-83
2021/11/14 10:54:43;;;;;;;10.25;6.10;;;20.80;69.80;;;;;;5048097;28;20031;-83
2021/11/14 10:57:09;;;;;;;8.98;6.38;;;20.80;69.70;;;;;;5047839;28;20143;-79
2021/11/14 10:59:35;;;;;;;8.43;5.93;;;20.90;70.20;;;;;;5033100;28;20471;-78
2021/11/14 11:02:04;;;;;;;10.77;6.40;;;20.90;69.50;;;;;;5028258;28;20489;-79
2021/11/14 11:04:30;;;;;;;9.57;6.47;;;20.90;69.60;;;;;;5028142;28;20018;-81
2021/11/14 11:06:59;;;;;;;11.13;6.63;;;20.90;69.60;;;;;;5028088;28;20032;-85
2021/11/14 11:09:34;;;;;;;7.28;5.30;;;21.00;69.60;;;;;;5027830;28;20489;-85
2021/11/14 11:12:02;;;;;;;8.63;4.93;;;21.00;69.40;;;;;;5044079;28;20373;-80
2021/11/14 11:14:28;;;;;;;8.38;5.53;;;21.00;69.50;;;;;;5049840;28;20128;-82
2021/11/14 11:16:58;;;;;;;7.72;5.28;;;21.10;69.60;;;;;;5032030;28;20033;-81
2021/11/14 11:19:25;;;;;;;6.57;5.30;;;21.10;69.40;;;;;;5041359;28;20485;-83
2021/11/14 11:21:50;;;;;;;10.05;5.78;;;21.20;69.30;;;;;;5027433;28;20025;-85
2021/11/14 11:24:25;;;;;;;7.68;5.35;;;21.20;69.10;;;;;;5036022;28;20417;-78
2021/11/14 11:26:56;;;;;;;8.13;5.63;;;21.20;68.90;;;;;;5109919;27;20102;-77
2021/11/14 11:29:22;;;;;;;8.15;5.40;;;21.20;68.70;;;;;;5034261;28;20032;-76
2021/11/14 11:31:49;;;;;;;9.98;5.93;;;21.10;68.70;;;;;;5044859;28;20369;-78
2021/11/14 11:34:19;;;;;;;7.30;5.63;;;21.00;69.00;;;;;;5043053;28;20057;-79
2021/11/14 11:36:46;;;;;;;11.85;6.45;;;21.00;69.20;;;;;;5035680;28;20053;-80
2021/11/14 11:39:12;;;;;;;7.60;6.18;;;21.00;69.60;;;;;;5059615;27;20036;-81
2021/11/14 11:41:42;;;;;;;11.38;7.13;;;21.00;69.60;;;;;;5035452;28;20029;-81
2021/11/14 11:44:07;;;;;;;9.88;6.10;;;20.90;70.10;;;;;;5040689;28;20052;-82
2021/11/14 11:46:36;;;;;;;8.02;6.03;;;20.90;70.10;;;;;;5050279;28;20489;-82
2021/11/14 11:49:05;;;;;;;8.55;6.93;;;20.90;70.20;;;;;;5049628;28;20017;-83
2021/11/14 11:51:41;;;;;;;7.78;6.43;;;20.80;70.30;;;;;;5037943;28;20025;-84
2021/11/14 11:54:19;;;;;;;7.60;6.10;;;20.80;70.40;;;;;;5045803;28;20032;-81
2021/11/14 11:56:48;;;;;;;9.02;6.63;;;20.70;70.40;;;;;;5038019;28;20111;-83
2021/11/14 11:59:35;;;;;;;8.13;6.47;;;20.70;70.70;;;;;;5047584;28;20377;-85
2021/11/14 12:02:17;;;;;;;10.80;6.88;;;20.70;71.30;;;;;;5039146;28;20557;-82
2021/11/14 12:04:45;;;;;;;9.68;6.60;;;20.70;71.20;;;;;;5035437;28;20026;-83
2021/11/14 12:07:16;;;;;;;8.57;7.22;;;20.70;71.00;;;;;;5043322;28;20026;-82
2021/11/14 12:09:43;;;;;;;9.70;6.22;;;20.70;71.40;;;;;;5047174;28;20043;-82
2021/11/14 12:12:33;;;;;;;10.80;6.70;;;20.70;71.50;;;;;;5044521;28;20077;-81
2021/11/14 12:15:23;;;;;;;8.93;6.80;;;20.60;72.00;;;;;;5033848;28;20068;-82
2021/11/14 12:17:55;;;;;;;9.02;6.13;;;20.60;72.00;;;;;;5042918;28;20045;-82
2021/11/14 12:20:34;;;;;;;8.32;7.00;;;20.60;72.00;;;;;;5041302;28;20154;-84
2021/11/14 12:23:03;;;;;;;7.88;5.90;;;20.50;72.60;;;;;;5033597;28;20044;-83
2021/11/14 12:25:38;;;;;;;14.38;6.90;;;20.50;72.90;;;;;;5045185;28;20091;-79
2021/11/14 12:28:10;;;;;;;8.52;7.05;;;20.60;72.70;;;;;;5039649;28;20361;-84
2021/11/14 12:30:57;;;;;;;7.25;6.15;;;20.50;72.70;;;;;;5036286;28;20037;-84
2021/11/14 12:33:25;;;;;;;14.13;7.25;;;20.40;72.50;;;;;;5033346;28;20108;-82
2021/11/14 12:35:57;;;;;;;7.80;6.53;;;20.40;72.50;;;;;;5042084;28;20030;-86
2021/11/14 12:38:31;;;;;;;13.10;7.45;;;20.40;72.40;;;;;;5041075;28;20029;-85
2021/11/14 12:41:03;;;;;;;8.98;7.18;;;20.40;72.40;;;;;;5032635;28;20494;-81
2021/11/14 12:43:34;;;;;;;10.98;8.02;;;20.30;72.40;;;;;;5044821;28;20026;-82
2021/11/14 12:46:10;;;;;;;15.00;7.75;;;20.30;72.50;;;;;;5031045;28;20040;-81
2021/11/14 12:48:40;;;;;;;9.63;7.63;;;20.30;72.50;;;;;;5042357;28;20053;-81
2021/11/14 12:51:06;;;;;;;8.73;7.05;;;20.30;72.70;;;;;;5032925;28;20025;-82
2021/11/14 12:53:53;;;;;;;9.35;7.88;;;20.20;72.70;;;;;;5044348;28;20038;-83
2021/11/14 12:56:33;;;;;;;8.48;6.68;;;20.20;72.60;;;;;;5040795;28;20029;-83
2021/11/14 12:59:00;;;;;;;8.88;7.38;;;20.20;72.90;;;;;;5048994;28;20048;-83
2021/11/14 13:01:31;;;;;;;11.00;7.90;;;20.20;72.80;;;;;;5033489;28;20021;-84
2021/11/14 13:03:59;;;;;;;8.55;6.85;;;20.10;72.50;;;;;;5040746;28;20507;-81
2021/11/14 13:06:34;;;;;;;9.88;8.73;;;20.20;73.00;;;;;;5045314;28;20028;-84
2021/11/14 13:09:19;;;;;;;10.90;8.10;;;23.00;65.40;;;;;;5037677;28;20167;-79
2021/11/14 13:11:45;;;;;;;10.30;8.50;;;23.90;61.50;;;;;;5040031;28;20021;-78
2021/11/14 13:14:15;;;;;;;10.45;8.10;;;24.10;60.60;;;;;;5039737;28;20085;-86
2021/11/14 13:16:43;;;;;;;11.02;8.63;;;24.00;61.80;;;;;;5047390;28;20026;-80
2021/11/14 13:19:10;;;;;;;11.18;9.00;;;24.20;62.90;;;;;;5039806;28;20552;-79
2021/11/14 13:21:37;;;;;;;11.35;9.25;;;24.20;64.50;;;;;;5042939;28;20537;-81
2021/11/14 13:24:12;;;;;;;11.57;8.70;;;24.10;66.20;;;;;;5040166;28;20158;-82
2021/11/14 13:26:53;;;;;;;16.33;9.02;;;24.00;68.30;;;;;;5039047;28;20485;-83
2021/11/14 13:29:34;;;;;;;12.70;8.18;;;24.50;71.40;;;;;;5037361;28;20050;-78
2021/11/14 13:32:08;;;;;;;11.63;8.65;;;24.20;59.10;;;;;;5039458;28;20745;-82
2021/11/14 13:34:37;;;;;;;10.70;8.02;;;24.20;59.10;;;;;;5036557;28;20017;-84
2021/11/14 13:37:14;;;;;;;13.23;8.55;;;23.40;60.20;;;;;;5036483;28;20040;-82
2021/11/14 13:39:47;;;;;;;13.68;8.95;;;22.10;64.10;;;;;;5039247;28;20120;-83
2021/11/14 13:42:32;;;;;;;11.25;8.75;;;21.40;66.30;;;;;;5038048;28;20019;-83
2021/11/14 13:45:07;;;;;;;12.80;8.20;;;21.00;68.10;;;;;;5038907;28;20017;-82
2021/11/14 13:47:34;;;;;;;16.33;8.40;;;20.80;69.20;;;;;;5038088;28;20434;-83
2021/11/14 13:50:01;;;;;;;12.15;8.40;;;20.60;70.00;;;;;;5034579;28;20021;-81
2021/11/14 13:52:28;;;;;;;11.70;8.43;;;20.50;70.50;;;;;;5037775;28;20029;-79
2021/11/14 13:55:06;;;;;;;13.77;8.70;;;20.40;70.70;;;;;;5038163;28;20018;-84
2021/11/14 13:57:33;;;;;;;14.52;9.95;;;20.30;71.00;;;;;;5041596;28;20112;-83
2021/11/14 14:00:06;;;;;;;12.52;9.77;;;20.20;71.40;;;;;;5037253;28;20037;-82
2021/11/14 14:02:32;;;;;;;9.93;8.10;;;20.20;71.80;;;;;;5048272;28;20570;-86